Time;durP1;ratioP1;P1;durP2;ratioP2;P2;SDS_P1;SDS_P2;PMS_P1;PMS_P2;Temp;Humidity;BMP_temperature;BMP_pressure;BME280_temperature;BME280_humidity;BME280_pressure;Samples;Min_cycle;Max_cycle;Signal;HPM_P1;HPM_P2
2022/06/19 00:02:23;;;;;;;;;;;25.60;69.50;;;;;;4997452;28;20020;-77
2022/06/19 00:04:51;;;;;;;;;;;25.60;69.60;;;;;;4997268;28;19928;-77
2022/06/19 00:07:17;;;;;;;;;;;25.60;69.70;;;;;;4997198;28;19922;-77
2022/06/19 00:09:45;;;;;;;;;;;25.60;69.70;;;;;;4997499;28;19927;-76
2022/06/19 00:12:12;;;;;;;;;;;25.60;69.90;;;;;;4997042;28;19922;-77
2022/06/19 00:14:39;;;;;;;;;;;25.60;70.10;;;;;;4997445;28;19922;-76
2022/06/19 00:17:07;;;;;;;;;;;25.60;70.10;;;;;;4997331;28;19922;-76
2022/06/19 00:19:34;;;;;;;;;;;25.60;70.20;;;;;;4997313;28;19922;-76
2022/06/19 00:22:01;;;;;;;;;;;25.60;70.20;;;;;;4996808;28;19922;-77
2022/06/19 00:24:29;;;;;;;;;;;25.60;70.30;;;;;;4997295;28;19922;-77
2022/06/19 00:26:57;;;;;;;;;;;25.60;70.40;;;;;;4996861;28;19922;-77
2022/06/19 00:29:24;;;;;;;;;;;25.60;70.40;;;;;;4996357;28;19922;-77
2022/06/19 00:31:50;;;;;;;;;;;25.60;70.60;;;;;;4997061;28;20012;-77
2022/06/19 00:34:17;;;;;;;;;;;25.60;70.70;;;;;;4996608;28;19925;-76
2022/06/19 00:36:45;;;;;;;;;;;25.60;70.70;;;;;;4996644;28;20024;-76
2022/06/19 00:39:11;;;;;;;;;;;25.60;70.80;;;;;;4996570;28;19938;-76
2022/06/19 00:41:40;;;;;;;;;;;25.60;70.80;;;;;;4996724;28;19921;-77
2022/06/19 06:28:01;;;;;;;;;;;25.60;80.00;;;;;;5540289;23;19961;-78
2022/06/19 06:30:28;;;;;;;;;;;25.50;80.10;;;;;;4994969;28;19925;-78
2022/06/19 06:32:55;;;;;;;;;;;25.60;80.20;;;;;;4994980;28;19979;-78
2022/06/19 06:35:21;;;;;;;;;;;25.60;80.30;;;;;;4994945;28;20017;-78
2022/06/19 06:37:48;;;;;;;;;;;25.60;80.40;;;;;;4994775;28;19965;-78
2022/06/19 06:40:15;;;;;;;;;;;25.60;80.60;;;;;;4996102;28;20292;-80
2022/06/19 06:42:42;;;;;;;;;;;25.60;80.60;;;;;;4996252;28;19961;-80
2022/06/19 06:45:13;;;;;;;;;;;25.60;80.70;;;;;;4995989;28;19922;-80
2022/06/19 06:47:39;;;;;;;;;;;25.60;80.80;;;;;;4995941;28;20365;-80
2022/06/19 06:50:06;;;;;;;;;;;25.60;80.90;;;;;;4996850;28;20363;-80
2022/06/19 06:52:33;;;;;;;;;;;25.60;81.00;;;;;;4996023;28;19972;-80
2022/06/19 06:55:00;;;;;;;;;;;25.60;81.10;;;;;;4995662;28;19968;-80
2022/06/19 06:57:26;;;;;;;;;;;25.60;81.20;;;;;;4995986;28;19964;-80
2022/06/19 06:59:53;;;;;;;;;;;25.60;81.30;;;;;;4995668;28;19983;-80
2022/06/19 07:02:21;;;;;;;;;;;25.60;81.50;;;;;;4995257;28;20429;-80
2022/06/19 07:04:48;;;;;;;;;;;25.60;81.50;;;;;;4996112;28;20397;-80
2022/06/19 07:07:14;;;;;;;;;;;25.60;81.60;;;;;;4995425;28;19928;-80
2022/06/19 07:09:41;;;;;;;;;;;25.60;82.40;;;;;;4998726;28;19969;-80
2022/06/19 07:12:08;;;;;;;;;;;25.60;81.90;;;;;;4998981;28;20411;-80
2022/06/19 07:14:34;;;;;;;;;;;25.60;82.00;;;;;;4998057;28;20008;-81
2022/06/19 07:17:01;;;;;;;;;;;25.60;82.00;;;;;;4997905;28;19976;-80
2022/06/19 07:19:30;;;;;;;;;;;25.60;82.20;;;;;;4997990;28;19964;-80
2022/06/19 07:21:56;;;;;;;;;;;25.60;82.30;;;;;;4997769;28;19928;-80
2022/06/19 07:24:23;;;;;;;;;;;25.60;82.40;;;;;;4998103;28;19953;-81
2022/06/19 07:26:50;;;;;;;;;;;25.60;82.40;;;;;;4997886;28;19926;-81
2022/06/19 07:29:16;;;;;;;;;;;25.60;82.60;;;;;;4997561;28;20016;-81
2022/06/19 07:31:43;;;;;;;;;;;25.60;82.80;;;;;;4998207;28;19989;-81
2022/06/19 07:34:10;;;;;;;;;;;25.60;83.00;;;;;;4997730;28;19968;-81
2022/06/19 07:36:38;;;;;;;;;;;25.60;83.20;;;;;;4997533;28;19921;-81
2022/06/19 07:39:05;;;;;;;;;;;25.60;83.30;;;;;;4999425;28;20440;-81
2022/06/19 07:41:32;;;;;;;;;;;25.60;83.50;;;;;;5001438;28;19922;-82
2022/06/19 07:43:58;;;;;;;;;;;25.60;83.60;;;;;;5001791;28;19968;-82
2022/06/19 07:46:25;;;;;;;;;;;25.60;83.70;;;;;;5001691;28;19928;-83
2022/06/19 07:51:36;;;;;;;;;;;25.60;84.10;;;;;;5001669;28;19964;-82
2022/06/19 07:54:04;;;;;;;;;;;25.60;84.40;;;;;;5002473;28;20004;-81
2022/06/19 07:56:31;;;;;;;;;;;25.60;84.60;;;;;;5002429;28;19965;-82
2022/06/19 07:58:58;;;;;;;;;;;25.60;84.90;;;;;;5001665;28;20013;-82
2022/06/19 08:01:24;;;;;;;;;;;25.60;85.20;;;;;;5003312;28;19928;-83
2022/06/19 08:03:51;;;;;;;;;;;25.60;85.30;;;;;;5002425;28;20028;-83
2022/06/19 08:06:19;;;;;;;;;;;25.70;85.40;;;;;;4999933;28;19953;-82
2022/06/19 08:08:46;;;;;;;;;;;25.70;85.60;;;;;;5000242;28;20008;-83
2022/06/19 08:11:14;;;;;;;;;;;25.70;86.00;;;;;;5000899;28;20347;-82
2022/06/19 08:13:41;;;;;;;;;;;25.70;86.40;;;;;;5001038;28;20021;-81
2022/06/19 08:16:09;;;;;;;;;;;25.70;86.70;;;;;;5001039;28;20012;-82
2022/06/19 08:18:37;;;;;;;;;;;25.80;87.10;;;;;;5000798;28;20359;-83
2022/06/19 08:21:04;;;;;;;;;;;25.80;87.40;;;;;;5000709;28;19969;-83
2022/06/19 08:23:30;;;;;;;;;;;25.80;87.60;;;;;;5000304;28;19921;-81
2022/06/19 08:25:58;;;;;;;;;;;25.80;87.80;;;;;;5000070;28;19968;-82
2022/06/19 08:28:29;;;;;;;;;;;25.80;88.00;;;;;;4999616;28;19922;-84
2022/06/19 08:30:55;;;;;;;;;;;25.80;88.20;;;;;;4999712;28;19928;-87
2022/06/19 08:33:22;;;;;;;;;;;25.90;88.30;;;;;;4998021;28;20344;-86
2022/06/19 08:35:50;;;;;;;;;;;25.90;88.50;;;;;;5004222;28;19990;-84
2022/06/19 08:38:19;;;;;;;;;;;25.90;88.70;;;;;;5008102;28;19972;-86
2022/06/19 08:40:57;;;;;;;;;;;25.90;88.80;;;;;;4998737;28;20012;-86
2022/06/19 08:43:35;;;;;;;;;;;25.90;89.00;;;;;;4999125;28;19992;-86
2022/06/19 08:46:07;;;;;;;;;;;25.90;89.10;;;;;;4998394;28;19928;-86
2022/06/19 08:48:43;;;;;;;;;;;26.00;89.40;;;;;;4997132;28;19922;-86
2022/06/19 08:51:17;;;;;;;;;;;26.00;89.20;;;;;;4996709;28;20392;-86
2022/06/19 08:53:55;;;;;;;;;;;25.90;89.00;;;;;;4996968;28;20016;-86
2022/06/19 08:56:25;;;;;;;;;;;26.00;89.10;;;;;;4996650;28;20020;-86
2022/06/19 08:58:57;;;;;;;;;;;26.00;89.10;;;;;;4996720;28;19922;-86
2022/06/19 09:01:28;;;;;;;;;;;26.00;89.10;;;;;;4996536;28;20425;-86
2022/06/19 09:06:51;;;;;;;;;;;26.00;89.20;;;;;;5002841;28;19945;-83
2022/06/19 09:09:25;;;;;;;;;;;26.00;89.10;;;;;;4999880;28;20012;-84
2022/06/19 09:12:00;;;;;;;;;;;26.00;88.70;;;;;;5000420;28;20008;-88
2022/06/19 09:14:34;;;;;;;;;;;26.00;88.40;;;;;;5000038;28;20000;-82
2022/06/19 09:17:05;;;;;;;;;;;26.00;88.20;;;;;;4999659;28;19976;-83
2022/06/19 09:19:39;;;;;;;;;;;26.00;88.10;;;;;;4998887;28;19922;-81
2022/06/19 09:22:12;;;;;;;;;;;26.00;88.30;;;;;;4997482;28;19926;-82
2022/06/19 09:24:46;;;;;;;;;;;26.00;88.60;;;;;;4997462;28;19977;-80
2022/06/19 09:27:15;;;;;;;;;;;26.10;88.60;;;;;;4996805;28;19971;-80
2022/06/19 09:29:45;;;;;;;;;;;26.10;88.30;;;;;;4996534;28;19992;-80
2022/06/19 09:32:16;;;;;;;;;;;26.10;88.10;;;;;;4997299;28;20012;-83
2022/06/19 09:34:46;;;;;;;;;;;26.10;87.90;;;;;;4997098;28;19922;-83
2022/06/19 09:37:15;;;;;;;;;;;26.10;87.70;;;;;;4998358;28;19968;-85
2022/06/19 09:39:47;;;;;;;;;;;26.10;87.70;;;;;;4995998;28;19922;-78
2022/06/19 09:42:17;;;;;;;;;;;26.10;87.80;;;;;;4995967;28;19922;-79
2022/06/19 09:44:49;;;;;;;;;;;26.10;87.80;;;;;;4996677;28;19928;-79
2022/06/19 09:47:19;;;;;;;;;;;26.10;87.70;;;;;;4997038;28;20012;-80
2022/06/19 09:49:48;;;;;;;;;;;26.10;87.30;;;;;;4996963;28;20416;-80
2022/06/19 09:52:16;;;;;;;;;;;26.10;87.10;;;;;;4997044;28;19922;-80
2022/06/19 09:54:45;;;;;;;;;;;26.10;87.00;;;;;;4996824;28;20444;-79
2022/06/19 09:57:14;;;;;;;;;;;26.10;87.10;;;;;;4996817;28;19921;-80
2022/06/19 09:59:44;;;;;;;;;;;26.10;87.00;;;;;;4996807;28;19921;-80
2022/06/19 10:02:20;;;;;;;;;;;26.10;87.00;;;;;;4995980;28;19921;-79
2022/06/19 10:04:49;;;;;;;;;;;26.20;87.20;;;;;;4996695;28;20004;-79
2022/06/19 10:07:19;;;;;;;;;;;26.20;87.20;;;;;;4996755;28;19928;-80
2022/06/19 10:09:48;;;;;;;;;;;26.20;88.00;;;;;;4996852;28;19921;-79
2022/06/19 10:12:27;;;;;;;;;;;26.20;87.60;;;;;;4995916;28;20016;-78
2022/06/19 10:14:57;;;;;;;;;;;26.20;87.60;;;;;;4995843;28;19971;-79
2022/06/19 10:17:28;;;;;;;;;;;26.20;87.80;;;;;;4995392;28;20355;-79
2022/06/19 10:19:59;;;;;;;;;;;26.30;87.80;;;;;;4995726;28;19928;-78
2022/06/19 10:22:38;;;;;;;;;;;26.30;87.70;;;;;;4995924;28;19921;-79
2022/06/19 10:25:21;;;;;;;;;;;26.30;87.70;;;;;;4995875;28;20384;-80
2022/06/19 10:27:55;;;;;;;;;;;26.30;87.60;;;;;;4996704;28;19928;-80
2022/06/19 10:30:26;;;;;;;;;;;26.30;87.60;;;;;;4995830;28;19968;-78
2022/06/19 10:33:01;;;;;;;;;;;26.30;87.50;;;;;;4995838;28;19921;-78
2022/06/19 10:35:31;;;;;;;;;;;26.30;87.40;;;;;;4996190;28;20020;-78
2022/06/19 10:38:06;;;;;;;;;;;26.30;87.60;;;;;;4995221;28;20012;-77
2022/06/19 10:40:37;;;;;;;;;;;26.30;87.50;;;;;;4996006;28;19972;-80
2022/06/19 10:43:12;;;;;;;;;;;26.30;87.50;;;;;;4996955;28;19921;-81
2022/06/19 10:45:40;;;;;;;;;;;26.40;87.60;;;;;;4996512;28;20000;-78
2022/06/19 10:48:15;;;;;;;;;;;26.30;87.30;;;;;;4996613;28;20345;-80
2022/06/19 10:50:45;;;;;;;;;;;26.40;87.20;;;;;;4996791;28;19972;-79
2022/06/19 10:53:25;;;;;;;;;;;26.30;86.90;;;;;;4995961;28;19922;-78
2022/06/19 10:55:54;;;;;;;;;;;26.30;86.80;;;;;;4994597;28;19921;-78
2022/06/19 10:58:22;;;;;;;;;;;26.30;86.70;;;;;;4994259;28;19968;-78
2022/06/19 11:00:51;;;;;;;;;;;26.30;86.70;;;;;;4994607;28;19922;-78
2022/06/19 11:06:09;;;;;;;;;;;26.40;87.40;;;;;;4994637;28;19933;-78
2022/06/19 11:08:36;;;;;;;;;;;26.40;87.70;;;;;;4994909;28;20280;-78
2022/06/19 11:11:03;;;;;;;;;;;26.40;88.00;;;;;;4995385;28;19976;-78
2022/06/19 11:13:54;;;;;;;;;;;26.40;88.30;;;;;;4998370;28;19922;-79
2022/06/19 11:16:21;;;;;;;;;;;26.40;88.50;;;;;;4983499;28;19932;-78
2022/06/19 11:18:49;;;;;;;;;;;26.40;88.70;;;;;;4998550;28;19928;-78
2022/06/19 11:21:18;;;;;;;;;;;26.40;88.90;;;;;;4998347;28;19928;-78
2022/06/19 11:23:52;;;;;;;;;;;26.40;89.20;;;;;;4998559;28;19922;-78
2022/06/19 11:26:20;;;;;;;;;;;26.40;89.30;;;;;;4999063;28;19922;-79
2022/06/19 11:28:51;;;;;;;;;;;26.40;89.40;;;;;;4998913;28;20008;-79
2022/06/19 11:31:19;;;;;;;;;;;26.40;89.50;;;;;;4999416;28;19921;-79
2022/06/19 11:33:47;;;;;;;;;;;26.40;89.60;;;;;;4999539;28;19957;-80
2022/06/19 11:36:26;;;;;;;;;;;26.40;89.70;;;;;;5000454;28;19976;-80
2022/06/19 11:38:54;;;;;;;;;;;26.30;89.60;;;;;;5000192;28;20337;-80
2022/06/19 11:41:28;;;;;;;;;;;26.30;89.70;;;;;;4999968;28;19922;-79
2022/06/19 11:44:03;;;;;;;;;;;26.30;89.80;;;;;;4998916;28;19945;-79
2022/06/19 11:46:31;;;;;;;;;;;26.30;89.90;;;;;;4999556;28;19921;-79
2022/06/19 11:49:16;;;;;;;;;;;26.30;90.00;;;;;;5000171;28;19922;-80
2022/06/19 11:51:46;;;;;;;;;;;26.30;90.00;;;;;;4999660;28;20361;-80
2022/06/19 11:54:14;;;;;;;;;;;26.40;90.10;;;;;;5000089;28;19960;-81
2022/06/19 11:56:41;;;;;;;;;;;26.30;90.10;;;;;;4999511;28;19971;-79
2022/06/19 11:59:24;;;;;;;;;;;26.40;90.10;;;;;;4999271;28;19921;-79
2022/06/19 12:01:50;;;;;;;;;;;26.40;90.20;;;;;;4999287;28;19980;-79
2022/06/19 12:04:27;;;;;;;;;;;26.40;90.20;;;;;;4998340;28;19985;-79
2022/06/19 12:06:56;;;;;;;;;;;26.40;90.20;;;;;;4999435;28;20020;-80
2022/06/19 12:09:26;;;;;;;;;;;26.40;90.30;;;;;;4999030;28;19922;-79
2022/06/19 12:11:57;;;;;;;;;;;26.40;90.30;;;;;;4999412;28;20345;-79
2022/06/19 12:14:28;;;;;;;;;;;26.40;90.30;;;;;;4998751;28;20020;-79
2022/06/19 12:17:06;;;;;;;;;;;26.40;90.40;;;;;;4998653;28;19983;-80
2022/06/19 12:19:33;;;;;;;;;;;26.40;90.50;;;;;;4998491;28;19922;-79
2022/06/19 12:22:04;;;;;;;;;;;26.50;90.50;;;;;;4998269;28;20027;-79
2022/06/19 12:24:38;;;;;;;;;;;26.40;90.60;;;;;;4998113;28;19928;-79
2022/06/19 12:27:09;;;;;;;;;;;26.50;90.70;;;;;;4999054;28;19928;-79
2022/06/19 12:29:38;;;;;;;;;;;26.40;90.70;;;;;;4999474;28;19963;-79
2022/06/19 12:32:06;;;;;;;;;;;26.40;90.70;;;;;;5000656;28;20008;-79
2022/06/19 12:34:36;;;;;;;;;;;26.40;90.70;;;;;;4998588;28;19943;-79
2022/06/19 12:37:06;;;;;;;;;;;26.40;90.80;;;;;;4997627;28;19921;-79
2022/06/19 12:39:33;;;;;;;;;;;26.40;90.70;;;;;;4997990;28;20297;-80
2022/06/19 12:42:05;;;;;;;;;;;26.40;90.70;;;;;;5000806;28;20021;-79
2022/06/19 12:44:37;;;;;;;;;;;26.40;90.70;;;;;;5002005;28;19932;-79
2022/06/19 12:47:09;;;;;;;;;;;26.50;90.80;;;;;;5002197;28;19922;-79
2022/06/19 12:49:45;;;;;;;;;;;26.50;90.90;;;;;;5001741;28;19922;-89
2022/06/19 12:52:19;;;;;;;;;;;26.50;91.00;;;;;;4996971;28;19925;-90
2022/06/19 12:54:54;;;;;;;;;;;26.50;91.00;;;;;;4999858;28;19944;-91
2022/06/19 12:57:31;;;;;;;;;;;26.50;91.00;;;;;;4998004;28;19929;-86
2022/06/19 13:00:07;;;;;;;;;;;26.50;91.00;;;;;;4998208;28;19965;-85
2022/06/19 13:02:41;;;;;;;;;;;26.50;91.00;;;;;;5002829;28;20273;-87
2022/06/19 13:05:14;;;;;;;;;;;26.50;91.00;;;;;;5003074;28;20420;-87
2022/06/19 13:07:48;;;;;;;;;;;26.50;91.30;;;;;;5003174;28;20000;-86
2022/06/19 13:10:35;;;;;;;;;;;26.50;91.10;;;;;;5004305;28;19977;-86
2022/06/19 13:13:10;;;;;;;;;;;26.50;91.10;;;;;;5003581;28;19932;-85
2022/06/19 13:15:46;;;;;;;;;;;26.50;91.00;;;;;;5003512;28;19921;-86
2022/06/19 13:18:16;;;;;;;;;;;26.50;90.90;;;;;;5003000;28;19926;-87
2022/06/19 13:20:47;;;;;;;;;;;26.50;90.90;;;;;;5002492;28;19922;-87
2022/06/19 13:23:21;;;;;;;;;;;26.40;90.80;;;;;;5001338;28;20004;-83
2022/06/19 13:25:52;;;;;;;;;;;26.40;90.70;;;;;;4999417;28;19989;-84
2022/06/19 13:28:28;;;;;;;;;;;26.40;90.70;;;;;;4998893;28;20004;-83
2022/06/19 13:30:58;;;;;;;;;;;26.40;90.70;;;;;;4999399;28;20017;-83
2022/06/19 13:33:39;;;;;;;;;;;26.40;90.70;;;;;;4998804;28;20035;-83
2022/06/19 13:36:10;;;;;;;;;;;26.40;90.80;;;;;;4997117;28;20024;-83
2022/06/19 13:38:44;;;;;;;;;;;26.40;90.70;;;;;;4999198;28;20020;-83
2022/06/19 13:41:17;;;;;;;;;;;26.40;90.70;;;;;;4998051;28;19968;-84
2022/06/19 13:43:51;;;;;;;;;;;26.40;90.70;;;;;;4998646;28;19922;-84
2022/06/19 13:46:26;;;;;;;;;;;26.40;90.60;;;;;;4999755;28;19956;-83
2022/06/19 13:48:54;;;;;;;;;;;26.40;90.50;;;;;;4997924;28;19961;-83
2022/06/19 13:51:23;;;;;;;;;;;26.40;90.40;;;;;;4996932;28;20014;-83
2022/06/19 13:53:54;;;;;;;;;;;26.40;90.40;;;;;;4996852;28;20456;-83
2022/06/19 13:56:24;;;;;;;;;;;26.40;90.30;;;;;;4997211;28;20024;-83
2022/06/19 13:59:02;;;;;;;;;;;26.40;90.30;;;;;;4997336;28;20009;-83
2022/06/19 14:01:33;;;;;;;;;;;26.40;90.20;;;;;;4997543;28;20274;-84
2022/06/19 14:06:57;;;;;;;;;;;26.30;90.10;;;;;;4996924;28;20348;-84
2022/06/19 14:09:28;;;;;;;;;;;26.30;90.00;;;;;;4996565;28;20341;-83
2022/06/19 14:12:04;;;;;;;;;;;26.30;90.00;;;;;;4996710;28;19928;-83
2022/06/19 14:14:32;;;;;;;;;;;26.30;89.90;;;;;;4996229;28;20021;-83
2022/06/19 14:17:01;;;;;;;;;;;26.30;89.80;;;;;;4996479;28;19922;-83
2022/06/19 14:19:32;;;;;;;;;;;26.30;89.70;;;;;;4996475;28;20004;-83
2022/06/19 14:22:04;;;;;;;;;;;26.30;89.60;;;;;;4996885;28;19984;-83
2022/06/19 14:24:40;;;;;;;;;;;26.30;89.50;;;;;;4996642;28;19929;-83
2022/06/19 14:27:14;;;;;;;;;;;26.30;89.40;;;;;;4996483;28;20012;-83
2022/06/19 14:29:43;;;;;;;;;;;26.30;89.30;;;;;;4995994;28;19953;-83
2022/06/19 14:32:12;;;;;;;;;;;26.30;89.10;;;;;;4996188;28;19949;-83
2022/06/19 14:34:49;;;;;;;;;;;26.30;89.10;;;;;;4996280;28;20008;-83
2022/06/19 14:37:34;;;;;;;;;;;26.30;89.00;;;;;;4996021;28;20016;-83
2022/06/19 14:40:06;;;;;;;;;;;26.30;88.90;;;;;;4996405;28;19928;-83
2022/06/19 14:42:48;;;;;;;;;;;26.30;88.90;;;;;;4996609;28;20008;-83
2022/06/19 14:45:17;;;;;;;;;;;26.30;88.80;;;;;;4995904;28;19929;-83
2022/06/19 14:47:54;;;;;;;;;;;26.30;88.70;;;;;;4995348;28;20021;-83
2022/06/19 14:50:29;;;;;;;;;;;26.30;88.60;;;;;;4996014;28;19968;-83
2022/06/19 14:53:13;;;;;;;;;;;26.30;88.50;;;;;;4996027;28;19922;-83
2022/06/19 14:55:47;;;;;;;;;;;26.30;88.40;;;;;;4995893;28;20017;-83
2022/06/19 14:58:16;;;;;;;;;;;26.20;88.30;;;;;;4995759;28;19921;-83
2022/06/19 15:00:47;;;;;;;;;;;26.20;88.10;;;;;;4995938;28;19926;-83
2022/06/19 15:03:25;;;;;;;;;;;26.30;88.20;;;;;;4995861;28;19969;-83
2022/06/19 15:05:54;;;;;;;;;;;26.20;88.00;;;;;;4995887;28;19922;-83
2022/06/19 15:08:22;;;;;;;;;;;26.20;87.90;;;;;;4995721;28;19972;-83
2022/06/19 15:10:54;;;;;;;;;;;26.20;87.90;;;;;;4995804;28;20017;-83
2022/06/19 15:13:23;;;;;;;;;;;26.20;87.80;;;;;;4996095;28;20301;-83
2022/06/19 15:15:52;;;;;;;;;;;26.20;87.70;;;;;;4996524;28;20013;-87
2022/06/19 15:18:23;;;;;;;;;;;26.20;87.60;;;;;;4999299;28;19921;-86
2022/06/19 15:21:10;;;;;;;;;;;26.20;87.60;;;;;;5001067;28;19922;-85
2022/06/19 15:23:42;;;;;;;;;;;26.20;87.50;;;;;;5002259;28;19925;-84
2022/06/19 15:26:27;;;;;;;;;;;26.20;87.50;;;;;;4996778;28;19928;-84
2022/06/19 15:29:03;;;;;;;;;;;26.20;87.40;;;;;;4997373;28;19977;-80
2022/06/19 15:31:47;;;;;;;;;;;26.20;87.40;;;;;;4997090;28;20333;-80
2022/06/19 15:34:28;;;;;;;;;;;26.20;87.40;;;;;;4996867;28;19941;-79
2022/06/19 15:37:22;;;;;;;;;;;26.20;87.30;;;;;;4995544;28;20352;-81
2022/06/19 15:39:50;;;;;;;;;;;26.20;87.20;;;;;;4996980;28;20452;-81
2022/06/19 15:42:20;;;;;;;;;;;26.20;87.20;;;;;;4996737;28;19922;-78
2022/06/19 15:45:13;;;;;;;;;;;26.20;87.20;;;;;;4995804;28;19972;-80
2022/06/19 15:48:04;;;;;;;;;;;26.20;87.10;;;;;;4996914;28;19921;-82
2022/06/19 15:50:34;;;;;;;;;;;26.20;87.10;;;;;;4999254;28;19921;-81
2022/06/19 15:53:01;;;;;;;;;;;26.20;87.10;;;;;;4996609;28;20432;-82
2022/06/19 15:55:34;;;;;;;;;;;26.20;87.10;;;;;;4996326;28;19929;-79
2022/06/19 15:58:02;;;;;;;;;;;26.20;87.00;;;;;;4995058;28;19968;-79
2022/06/19 16:00:31;;;;;;;;;;;26.20;87.00;;;;;;4997581;28;19945;-79
2022/06/19 16:02:58;;;;;;;;;;;26.20;87.00;;;;;;4998439;28;19922;-79
2022/06/19 16:05:27;;;;;;;;;;;26.20;87.00;;;;;;4998448;28;19922;-80
2022/06/19 16:07:56;;;;;;;;;;;26.20;87.10;;;;;;4998391;28;19925;-79
2022/06/19 16:10:26;;;;;;;;;;;26.20;87.30;;;;;;4997951;28;19926;-79
2022/06/19 16:13:06;;;;;;;;;;;26.20;87.50;;;;;;4998214;28;19945;-79
2022/06/19 16:15:33;;;;;;;;;;;26.20;87.60;;;;;;4998649;28;19922;-79
2022/06/19 16:18:00;;;;;;;;;;;26.20;87.80;;;;;;5000940;28;19961;-79
2022/06/19 16:20:28;;;;;;;;;;;26.30;88.10;;;;;;4998306;28;19928;-78
2022/06/19 16:22:57;;;;;;;;;;;26.30;88.20;;;;;;4997647;28;20016;-78
2022/06/19 16:25:27;;;;;;;;;;;26.30;88.40;;;;;;4997536;28;20020;-79
2022/06/19 16:27:55;;;;;;;;;;;26.30;88.60;;;;;;4997648;28;19928;-79
2022/06/19 16:30:29;;;;;;;;;;;26.30;88.80;;;;;;4997279;28;19928;-79
2022/06/19 16:32:56;;;;;;;;;;;26.30;89.00;;;;;;4997564;28;20441;-79
2022/06/19 16:44:07;;;;;;;;;;;26.20;89.50;;;;;;5003347;28;19928;-81
2022/06/19 16:46:35;;;;;;;;;;;26.20;89.60;;;;;;5004794;28;20377;-81
2022/06/19 16:49:05;;;;;;;;;;;26.20;89.50;;;;;;5004263;28;19989;-81
2022/06/19 16:51:33;;;;;;;;;;;26.20;89.40;;;;;;5003288;28;19921;-82
2022/06/19 16:54:01;;;;;;;;;;;26.20;89.20;;;;;;5003777;28;19921;-81
2022/06/19 16:56:30;;;;;;;;;;;26.20;88.90;;;;;;5008683;28;19922;-85
2022/06/19 16:58:59;;;;;;;;;;;26.20;88.50;;;;;;5006112;28;20374;-85
2022/06/19 17:01:29;;;;;;;;;;;26.20;88.20;;;;;;5005303;28;19929;-85
2022/06/19 17:03:57;;;;;;;;;;;26.20;87.80;;;;;;5004372;28;20505;-86
2022/06/19 17:06:26;;;;;;;;;;;26.20;88.10;;;;;;5004237;28;19922;-82
2022/06/19 17:08:55;;;;;;;;;;;26.10;86.90;;;;;;4999740;28;19929;-83
2022/06/19 17:11:26;;;;;;;;;;;26.10;86.20;;;;;;4999744;28;20016;-83
2022/06/19 17:13:55;;;;;;;;;;;26.10;85.70;;;;;;4999972;28;19981;-84
2022/06/19 17:16:22;;;;;;;;;;;26.10;85.70;;;;;;5000706;28;19922;-82
2022/06/19 17:18:50;;;;;;;;;;;26.10;85.40;;;;;;5000702;28;20441;-82
2022/06/19 17:21:18;;;;;;;;;;;26.10;84.90;;;;;;5000055;28;20012;-82
2022/06/19 17:24:00;;;;;;;;;;;26.10;84.50;;;;;;4999310;28;20013;-81
2022/06/19 17:26:32;;;;;;;;;;;26.10;84.20;;;;;;5002781;28;20008;-81
2022/06/19 17:28:58;;;;;;;;;;;26.10;83.50;;;;;;5005074;28;19989;-82
2022/06/19 17:31:27;;;;;;;;;;;26.10;83.00;;;;;;5003406;28;19961;-82
2022/06/19 17:33:54;;;;;;;;;;;26.10;82.60;;;;;;5003351;28;20360;-82
2022/06/19 17:36:28;;;;;;;;;;;26.00;82.20;;;;;;4999863;28;20012;-81
2022/06/19 17:38:56;;;;;;;;;;;26.00;82.00;;;;;;4999091;28;19927;-80
2022/06/19 17:41:38;;;;;;;;;;;26.00;81.70;;;;;;4998577;28;20017;-81
2022/06/19 17:44:06;;;;;;;;;;;26.00;81.60;;;;;;4997377;28;19926;-83
2022/06/19 17:46:34;;;;;;;;;;;26.00;81.60;;;;;;4997549;28;19988;-82
2022/06/19 17:49:02;;;;;;;;;;;26.00;81.50;;;;;;4997937;28;19960;-83
2022/06/19 17:51:30;;;;;;;;;;;26.00;81.40;;;;;;4998559;28;20263;-83
2022/06/19 17:53:57;;;;;;;;;;;26.00;81.30;;;;;;4998386;28;19921;-82
2022/06/19 17:56:32;;;;;;;;;;;26.00;81.20;;;;;;4998097;28;20022;-83
2022/06/19 17:59:01;;;;;;;;;;;26.00;81.20;;;;;;4998414;28;19922;-82
2022/06/19 18:01:35;;;;;;;;;;;26.00;81.20;;;;;;4998516;28;20008;-80
2022/06/19 18:04:02;;;;;;;;;;;26.00;81.20;;;;;;4998658;28;20020;-81
2022/06/19 18:06:32;;;;;;;;;;;26.00;81.10;;;;;;4997660;28;19929;-82
2022/06/19 18:08:59;;;;;;;;;;;26.00;81.10;;;;;;4997885;28;19922;-82
2022/06/19 18:11:27;;;;;;;;;;;26.00;81.10;;;;;;4997206;28;19928;-82
2022/06/19 18:13:55;;;;;;;;;;;26.00;81.10;;;;;;4997602;28;20381;-82
2022/06/19 18:19:08;;;;;;;;;;;25.90;81.00;;;;;;4995759;28;19929;-81
2022/06/19 18:21:36;;;;;;;;;;;25.90;81.40;;;;;;4995266;28;20020;-84
2022/06/19 18:24:04;;;;;;;;;;;26.00;81.70;;;;;;4995933;28;19925;-83
2022/06/19 18:26:33;;;;;;;;;;;26.00;82.00;;;;;;4995496;28;19928;-83
2022/06/19 18:29:00;;;;;;;;;;;26.00;82.10;;;;;;4995441;28;19921;-82
2022/06/19 18:31:29;;;;;;;;;;;26.00;82.30;;;;;;4995886;28;19922;-81
2022/06/19 18:33:55;;;;;;;;;;;26.00;82.50;;;;;;4995680;28;19972;-80
2022/06/19 18:36:22;;;;;;;;;;;26.00;82.60;;;;;;4995803;28;19921;-83
2022/06/19 18:38:49;;;;;;;;;;;26.10;83.00;;;;;;4995728;28;19928;-82
2022/06/19 18:41:15;;;;;;;;;;;26.10;83.10;;;;;;4995726;28;20012;-79
2022/06/19 18:43:42;;;;;;;;;;;26.10;83.40;;;;;;4996110;28;20016;-81
2022/06/19 18:46:09;;;;;;;;;;;26.10;83.60;;;;;;4996783;28;19965;-79
2022/06/19 18:48:37;;;;;;;;;;;26.10;83.80;;;;;;4995449;28;20443;-78
2022/06/19 18:51:05;;;;;;;;;;;26.10;84.00;;;;;;4995571;28;19928;-82
2022/06/19 18:53:33;;;;;;;;;;;26.20;84.50;;;;;;4996143;28;19929;-80
2022/06/19 18:56:00;;;;;;;;;;;26.20;84.90;;;;;;4996226;28;19928;-80
2022/06/19 18:58:27;;;;;;;;;;;26.20;85.10;;;;;;4996579;28;19968;-81
2022/06/19 19:00:55;;;;;;;;;;;26.20;85.40;;;;;;4996113;28;19922;-81
2022/06/19 19:03:22;;;;;;;;;;;26.20;85.80;;;;;;4995493;28;19967;-81
2022/06/19 19:05:51;;;;;;;;;;;26.20;85.80;;;;;;4995776;28;19993;-81
2022/06/19 19:08:19;;;;;;;;;;;26.20;85.80;;;;;;4995820;28;19921;-81
2022/06/19 19:10:48;;;;;;;;;;;26.20;85.90;;;;;;4995833;28;19924;-79
2022/06/19 19:13:16;;;;;;;;;;;26.20;86.40;;;;;;4996002;28;19943;-80
2022/06/19 19:15:43;;;;;;;;;;;26.20;86.70;;;;;;4997090;28;20017;-80
2022/06/19 19:18:10;;;;;;;;;;;26.20;87.70;;;;;;4997299;28;20013;-81
2022/06/19 19:20:39;;;;;;;;;;;26.20;87.20;;;;;;4996890;28;20288;-80
2022/06/19 19:23:07;;;;;;;;;;;26.20;88.20;;;;;;4996670;28;19926;-80
2022/06/19 19:25:35;;;;;;;;;;;26.20;87.80;;;;;;4996194;28;19922;-80
2022/06/19 19:28:03;;;;;;;;;;;26.20;88.00;;;;;;4995997;28;19928;-81
2022/06/19 19:30:30;;;;;;;;;;;26.20;88.30;;;;;;4996065;28;20012;-80
2022/06/19 19:32:58;;;;;;;;;;;26.20;88.50;;;;;;4995918;28;20004;-80
2022/06/19 19:35:26;;;;;;;;;;;26.20;88.80;;;;;;5000176;28;19926;-80
2022/06/19 19:37:53;;;;;;;;;;;26.20;89.10;;;;;;4999794;28;19921;-81
2022/06/19 19:40:22;;;;;;;;;;;26.20;89.30;;;;;;5000117;28;19928;-80
2022/06/19 19:42:48;;;;;;;;;;;26.20;89.60;;;;;;4999354;28;19928;-81
2022/06/19 19:45:15;;;;;;;;;;;26.20;90.30;;;;;;5000239;28;19926;-81
2022/06/19 19:47:43;;;;;;;;;;;26.20;90.10;;;;;;5000039;28;19922;-81
2022/06/19 19:50:13;;;;;;;;;;;26.20;90.20;;;;;;4999709;28;19944;-80
2022/06/19 19:52:40;;;;;;;;;;;26.20;90.30;;;;;;5000159;28;19922;-81
2022/06/19 19:55:10;;;;;;;;;;;26.20;90.50;;;;;;5000324;28;20012;-81
2022/06/19 19:57:40;;;;;;;;;;;26.20;90.70;;;;;;4999843;28;20346;-83
2022/06/19 20:00:07;;;;;;;;;;;26.20;90.70;;;;;;4999238;28;20262;-81
2022/06/19 20:02:34;;;;;;;;;;;26.20;90.70;;;;;;4999653;28;19928;-80
2022/06/19 20:05:01;;;;;;;;;;;26.20;90.90;;;;;;4999828;28;20016;-81
2022/06/19 20:10:36;;;;;;;;;;;26.20;91.20;;;;;;4945670;28;19922;-81
2022/06/19 20:13:05;;;;;;;;;;;26.20;91.40;;;;;;4998782;28;20024;-77
2022/06/19 20:15:32;;;;;;;;;;;26.20;91.60;;;;;;4997941;28;19976;-77
2022/06/19 20:18:02;;;;;;;;;;;26.20;91.80;;;;;;5003866;28;19968;-82
2022/06/19 20:20:31;;;;;;;;;;;26.20;92.00;;;;;;5004400;28;19968;-82
2022/06/19 20:22:58;;;;;;;;;;;26.20;92.20;;;;;;5005144;28;19929;-81
2022/06/19 20:25:27;;;;;;;;;;;26.30;92.40;;;;;;5002918;28;19922;-81
2022/06/19 20:27:57;;;;;;;;;;;26.30;92.50;;;;;;5003259;28;19922;-78
2022/06/19 20:30:27;;;;;;;;;;;26.30;92.70;;;;;;5002675;28;19925;-77
2022/06/19 20:32:55;;;;;;;;;;;26.30;93.00;;;;;;5002806;28;19928;-77
2022/06/19 20:35:23;;;;;;;;;;;26.30;93.20;;;;;;5002518;28;19922;-78
2022/06/19 20:37:51;;;;;;;;;;;26.30;93.20;;;;;;5002320;28;19922;-78
2022/06/19 20:40:21;;;;;;;;;;;26.30;93.40;;;;;;5002792;28;19969;-77
2022/06/19 20:42:48;;;;;;;;;;;26.30;93.60;;;;;;5003451;28;19925;-78
2022/06/19 20:45:16;;;;;;;;;;;26.30;93.80;;;;;;5002566;28;20017;-78